Terminal Aerodrome Forecast
Issued by NWS

Home | Current Version | Previous Version | Text Only | Print | Product List | Glossary On
Versions: 1 2 3 4 5 6 7 8 9 10 11 12 13 14 15 16 17 18 19 20 21 22 23 24 25 26 27 28 29 30 31 32 33 34 35 36 37 38 39
000
FTUS41 KBOX 172014 AAB
TAFBED
TAF AMD
KBED 172014Z 1720/1818 30007KT P6SM SCT015 BKN035
     FM172300 30008KT P6SM BKN025
     FM180900 28010G20KT P6SM BKN025
     FM181200 28010G21KT P6SM BKN040=

USA.gov is the U.S. government's official web portal to all federal, state and local government web resources and services.